createdAt,value
2023-08-15T00:04:04.020Z,100181
2023-08-15T00:09:57.639Z,100167
2023-08-15T00:15:53.789Z,100165
2023-08-15T00:21:45.556Z,100156
2023-08-15T00:27:38.402Z,100158
2023-08-15T00:33:31.042Z,100160
2023-08-15T00:39:23.710Z,100157
2023-08-15T00:45:20.531Z,100152
2023-08-15T00:51:15.622Z,100157
2023-08-15T00:57:13.071Z,100141
2023-08-15T01:03:05.827Z,100135
2023-08-15T01:09:00.601Z,100112
2023-08-15T01:14:52.496Z,100108
2023-08-15T01:20:45.709Z,100102
2023-08-15T01:27:46.725Z,100125
2023-08-15T01:33:37.997Z,100134
2023-08-15T01:39:30.585Z,100138
2023-08-15T01:45:24.211Z,100144
2023-08-15T01:51:16.573Z,100148
2023-08-15T01:57:08.950Z,100155
2023-08-15T02:03:02.283Z,100162
2023-08-15T02:08:54.601Z,100149
2023-08-15T02:14:47.229Z,100138
2023-08-15T02:20:39.521Z,100148
2023-08-15T02:26:31.911Z,100164
2023-08-15T02:32:24.224Z,100165
2023-08-15T02:38:17.159Z,100160
2023-08-15T02:44:10.012Z,100168
2023-08-15T02:50:03.996Z,100153
2023-08-15T02:55:56.479Z,100107
2023-08-15T03:01:48.935Z,100124
2023-08-15T03:07:42.470Z,100157
2023-08-15T03:13:34.251Z,100279
2023-08-15T03:19:26.974Z,100279
2023-08-15T03:25:19.442Z,100271
2023-08-15T03:31:12.146Z,100273
2023-08-15T03:37:04.709Z,100291
2023-08-15T03:42:57.347Z,100289
2023-08-15T03:48:49.488Z,100271
2023-08-15T03:54:39.938Z,100235
2023-08-15T04:00:31.969Z,100229
2023-08-15T04:06:22.956Z,100219
2023-08-15T04:12:14.789Z,100217
2023-08-15T04:18:06.359Z,100237
2023-08-15T04:23:58.498Z,100223
2023-08-15T04:29:51.503Z,100212
2023-08-15T04:35:45.161Z,100212
2023-08-15T04:41:38.931Z,100209
2023-08-15T04:47:31.274Z,100215
2023-08-15T04:53:23.546Z,100207
2023-08-15T04:59:18.750Z,100222
2023-08-15T05:05:10.522Z,100238
2023-08-15T05:11:03.862Z,100230
2023-08-15T05:16:56.111Z,100246
2023-08-15T05:22:48.576Z,100275
2023-08-15T05:28:41.325Z,100294
2023-08-15T05:34:39.706Z,100290
2023-08-15T05:40:32.750Z,100293
2023-08-15T05:46:25.409Z,100295
2023-08-15T05:52:17.975Z,100309
2023-08-15T05:58:11.424Z,100313
2023-08-15T06:04:05.387Z,100311
2023-08-15T06:09:58.965Z,100316
2023-08-15T06:15:51.556Z,100323
2023-08-15T06:21:43.169Z,100314
2023-08-15T06:27:35.715Z,100316
2023-08-15T06:33:28.556Z,100309
2023-08-15T06:39:21.164Z,100322
2023-08-15T06:45:13.631Z,100326
2023-08-15T06:51:05.976Z,100346
2023-08-15T06:57:00.003Z,100351
2023-08-15T07:02:54.214Z,100352
2023-08-15T07:08:46.578Z,100346
2023-08-15T07:14:38.993Z,100362
2023-08-15T07:20:37.141Z,100368
2023-08-15T07:26:31.046Z,100361
2023-08-15T07:32:26.879Z,100367
2023-08-15T07:38:19.836Z,100372
2023-08-15T07:44:14.526Z,100367
2023-08-15T07:50:07.134Z,100361
2023-08-15T07:55:59.968Z,100373
2023-08-15T08:01:53.705Z,100375
2023-08-15T08:07:46.668Z,100392
2023-08-15T08:13:39.491Z,100391
2023-08-15T08:19:31.884Z,100393
2023-08-15T08:25:24.936Z,100405
2023-08-15T08:31:17.578Z,100401
2023-08-15T08:37:11.756Z,100398
2023-08-15T08:43:04.281Z,100412
2023-08-15T08:48:56.857Z,100411
2023-08-15T08:54:59.907Z,100413
2023-08-15T09:00:54.456Z,100396
2023-08-15T09:06:47.175Z,100407
2023-08-15T09:12:39.770Z,100407
2023-08-15T09:18:32.483Z,100436
2023-08-15T09:24:23.375Z,100429
2023-08-15T09:30:15.609Z,100433
2023-08-15T09:36:07.743Z,100439
2023-08-15T09:42:02.961Z,100451
2023-08-15T09:47:55.234Z,100450
2023-08-15T09:53:47.558Z,100461
2023-08-15T09:59:39.563Z,100470
2023-08-15T10:05:33.255Z,100478
2023-08-15T10:11:25.507Z,100477
2023-08-15T10:17:21.100Z,100480
2023-08-15T10:23:14.967Z,100488
2023-08-15T10:29:07.776Z,100486
2023-08-15T10:34:59.752Z,100495
2023-08-15T10:40:52.689Z,100481
2023-08-15T10:46:44.347Z,100482
2023-08-15T10:52:38.838Z,100482
2023-08-15T10:58:33.058Z,100484
2023-08-15T11:04:25.233Z,100502
2023-08-15T11:10:17.031Z,100499
2023-08-15T11:16:09.423Z,100494
2023-08-15T11:22:02.092Z,100496
2023-08-15T11:27:54.189Z,100484
2023-08-15T11:33:46.421Z,100486
2023-08-15T11:39:39.376Z,100489
2023-08-15T11:45:32.051Z,100498
2023-08-15T11:51:23.286Z,100492
2023-08-15T11:57:15.492Z,100500
2023-08-15T12:03:08.388Z,100505
2023-08-15T12:09:01.484Z,100504
2023-08-15T12:14:56.196Z,100503
2023-08-15T12:20:47.916Z,100506
2023-08-15T12:26:39.997Z,100501
2023-08-15T12:32:33.813Z,100496
2023-08-15T12:38:28.049Z,100496
2023-08-15T12:44:20.018Z,100485
2023-08-15T12:50:12.061Z,100482
2023-08-15T12:57:14.238Z,100489
2023-08-15T13:03:05.691Z,100478
2023-08-15T13:08:58.180Z,100473
2023-08-15T13:14:50.598Z,100470
2023-08-15T13:20:42.672Z,100469
2023-08-15T13:26:38.332Z,100473
2023-08-15T13:32:30.651Z,100476
2023-08-15T13:38:23.334Z,100476
2023-08-15T13:44:17.025Z,100460
2023-08-15T13:50:10.137Z,100456
2023-08-15T13:56:02.666Z,100459
2023-08-15T14:01:55.408Z,100466
2023-08-15T14:07:48.417Z,100466
2023-08-15T14:13:39.923Z,100464
2023-08-15T14:19:32.157Z,100472
2023-08-15T14:25:24.953Z,100476
2023-08-15T14:31:20.741Z,100480
2023-08-15T14:37:13.707Z,100481
2023-08-15T14:43:05.494Z,100485
2023-08-15T14:48:58.234Z,100479
2023-08-15T14:54:51.218Z,100481
2023-08-15T15:00:45.200Z,100479
2023-08-15T15:06:38.099Z,100483
2023-08-15T15:12:31.036Z,100466
2023-08-15T15:18:24.404Z,100457
2023-08-15T15:24:17.575Z,100459
2023-08-15T15:30:09.334Z,100464
2023-08-15T15:36:05.160Z,100458
2023-08-15T15:41:56.973Z,100466
2023-08-15T15:47:51.839Z,100460
2023-08-15T15:53:44.184Z,100453
2023-08-15T15:59:36.489Z,100468
2023-08-15T16:05:30.118Z,100468
2023-08-15T16:11:23.788Z,100474
2023-08-15T16:17:17.302Z,100476
2023-08-15T16:23:10.527Z,100487
2023-08-15T16:29:04.669Z,100474
2023-08-15T16:36:07.038Z,100477
2023-08-15T16:41:59.146Z,100478
2023-08-15T16:47:51.269Z,100486
2023-08-15T16:53:43.857Z,100478
2023-08-15T16:59:37.613Z,100491
2023-08-15T17:05:29.378Z,100473
2023-08-15T17:11:21.465Z,100481
2023-08-15T17:17:14.262Z,100484
2023-08-15T17:23:06.440Z,100475
2023-08-15T17:29:26.830Z,100485
2023-08-15T17:35:46.065Z,100492
2023-08-15T17:41:38.618Z,100484
2023-08-15T17:47:36.568Z,100491
2023-08-15T17:53:29.811Z,100490
2023-08-15T17:59:21.403Z,100501
2023-08-15T18:05:13.878Z,100500
2023-08-15T18:11:05.351Z,100513
2023-08-15T18:17:01.006Z,100516
2023-08-15T18:22:51.886Z,100527
2023-08-15T18:28:43.909Z,100553
2023-08-15T18:34:35.496Z,100549
2023-08-15T18:40:27.814Z,100564
2023-08-15T18:46:19.648Z,100574
2023-08-15T18:52:11.757Z,100568
2023-08-15T18:58:03.888Z,100576
2023-08-15T19:03:56.294Z,100585
2023-08-15T19:09:48.295Z,100595
2023-08-15T19:15:39.982Z,100599
2023-08-15T19:21:32.781Z,100604
2023-08-15T19:27:26.109Z,100607
2023-08-15T19:33:18.139Z,100606
2023-08-15T19:39:10.532Z,100621
2023-08-15T19:45:03.064Z,100631
2023-08-15T19:50:54.665Z,100615
2023-08-15T19:56:46.202Z,100607
2023-08-15T20:02:38.107Z,100616
2023-08-15T20:08:30.552Z,100613
2023-08-15T20:14:23.172Z,100626
2023-08-15T20:20:22.257Z,100611
2023-08-15T20:26:13.280Z,100626
2023-08-15T20:32:05.541Z,100626
2023-08-15T20:38:00.982Z,100627
2023-08-15T20:43:52.632Z,100627
2023-08-15T20:49:45.354Z,100629
2023-08-15T20:55:37.528Z,100635
2023-08-15T21:01:29.667Z,100639
2023-08-15T21:07:22.700Z,100638
2023-08-15T21:13:16.881Z,100645
2023-08-15T21:19:07.956Z,100644
2023-08-15T21:24:59.617Z,100642
2023-08-15T21:30:52.545Z,100643
2023-08-15T21:36:45.108Z,100639
2023-08-15T21:42:36.233Z,100633
2023-08-15T21:48:29.760Z,100630
2023-08-15T21:54:22.467Z,100638
2023-08-15T22:00:14.482Z,100642
2023-08-15T22:06:06.450Z,100654
2023-08-15T22:11:58.048Z,100659
2023-08-15T22:24:10.462Z,100664
2023-08-15T22:30:02.955Z,100658
2023-08-15T22:35:55.454Z,100673
2023-08-15T22:41:48.514Z,100671
2023-08-15T22:47:40.976Z,100670
2023-08-15T22:53:33.860Z,100666
2023-08-15T22:59:26.015Z,100671
2023-08-15T23:05:18.698Z,100673
2023-08-15T23:11:10.913Z,100653
2023-08-15T23:17:03.329Z,100660
2023-08-15T23:22:56.182Z,100653
2023-08-15T23:28:48.449Z,100654
2023-08-15T23:34:40.937Z,100651
2023-08-15T23:40:33.470Z,100650
2023-08-15T23:46:24.236Z,100659
2023-08-15T23:52:15.465Z,100666
2023-08-15T23:58:08.589Z,100662
